METAR AND TAF INFORMATION
METAR FOR LESA
ADDS - METARS form results

(2107 UTC 15 October 2021)
Data provider http://aviationweather.gov/metar/data/
 
METAR text: LESA 152100Z AUTO 18002KT 9000 NCD 08/05 Q1021
Conditions at: LESA (SALAMANCA (CIV/M, ES) observed 2100 UTC 15 October 2021
Temperature: 8.0°C (46°F)
Dewpoint: 5.0°C (41°F) [RH = 81%]
Pressure (altimeter): 30.15 inches Hg (1021.0 mb)
Winds: from the S (180 degrees) at 2 MPH (2 knots; 1.0 m/s)
Visibility: 6 miles ( 9 km)
Ceiling: at least 12,000 feet AGL
Clouds: sky clear below 12,000 feet AGL
Weather: no significant weather observed at this time

METAR text: LESA 152030Z AUTO VRB01KT CAVOK 11/03 Q1020
Conditions at: LESA (SALAMANCA (CIV/M, ES) observed 2030 UTC 15 October 2021
Temperature: 11.0°C (52°F)
Dewpoint: 3.0°C (37°F) [RH = 58%]
Pressure (altimeter): 30.12 inches Hg (1020.0 mb)
Winds: variable direction winds at 1 MPH (1 knots; 0.5 m/s)
Visibility: 6 or more miles (10+ km)
Ceiling: ceiling and visibility are OK
Clouds: unknown
Weather: no significant weather observed at this time

Forecast for: LESA (SALAMANCA (CIV/M, ES)
Text: TAF LESA 152000Z 1521/1621 VRB05KT CAVOK TX21/1615Z TN03/1606Z
Forecast period: 2100 UTC 15 October 2021 to 2100 UTC 16 October 2021
Forecast type: FROM: standard forecast or significant change
Winds: variable direction winds at 6 MPH (5 knots; 2.6 m/s)
Visibility: 6 or more miles (10+ km)
Ceiling: unknown
Clouds: missing
Weather: no significant weather forecast for this period
Text: PROB30
Forecast period: 1800 to 2100 UTC 16 October 2021
Forecast type: TEMPORARY: The following changes expected for less than half the time period
Visibility: 1.86 miles (2.99 km)
Ceiling: 1400 feet AGL
Clouds: broken clouds at 1400 feet AGL
Weather: RA  (moderate rain)

 AIRPORT MAP

 RUNWAY INFORMATION
Runway 03 Runway length 8202 ft Runway width 197 ft
Runway elevation 2595 ft Runway displaced threshold 0 ft Runway heading 28
Runway 21 Runway length 8202 ft Runway width 197 ft
Runway elevation 2586 ft Runway displaced threshold 0 ft Runway heading 208
Runway 08 Runway length 6594 ft Runway width 400 ft
Runway elevation 2587 ft Runway displaced threshold 0 ft Runway heading 74
Runway 26 Runway length 6594 ft Runway width 400 ft
Runway elevation 2588 ft Runway displaced threshold 0 ft Runway heading 254

 AIRPORT FREQUENCIES
Type APP Name APP Frequency 124.4 MHZ
Type GND Name GND Frequency 121.85 MHZ
Type TWR Name TWR Frequency 139.3 MHZ

 AIRPORT NEAR NAVIGATION AIDS
Type VOR-DME Name Salamanca Frequency 112200 KHZ
Type NDB Name Salamanca Frequency 399 KHZ
Type NDB Name Salamanca Frequency 423 KHZ
Type TACAN Name Salamanca Frequency 113300 KHZ



Powered by Virtual Airlines Manager [v2.6.2]